Time;durP1;ratioP1;P1;durP2;ratioP2;P2;SDS_P1;SDS_P2;PMS_P1;PMS_P2;Temp;Humidity;BMP_temperature;BMP_pressure;BME280_temperature;BME280_humidity;BME280_pressure;Samples;Min_cycle;Max_cycle;Signal;HPM_P1;HPM_P2
2023/03/11 00:02:10;;;;;;;4.07;2.20;;;;;;;;;;5054005;28;20392;-57
2023/03/11 00:04:36;;;;;;;2.30;2.10;;;;;;;;;;5053817;28;20027;-57
2023/03/11 00:07:05;;;;;;;4.05;2.58;;;;;;;;;;5053997;28;20012;-55
2023/03/11 00:09:31;;;;;;;3.33;2.40;;;;;;;;;;5052967;28;20492;-62
2023/03/11 00:11:57;;;;;;;3.45;2.40;;;;;;;;;;5053768;28;20052;-61
2023/03/11 00:14:22;;;;;;;4.63;2.53;;;;;;;;;;5053434;28;20460;-59
2023/03/11 00:16:48;;;;;;;3.42;2.40;;;;;;;;;;5053352;28;20473;-56
2023/03/11 00:19:13;;;;;;;2.50;2.30;;;;;;;;;;5054441;28;20032;-57
2023/03/11 00:21:39;;;;;;;2.55;2.28;;;;;;;;;;5054128;28;20381;-55
2023/03/11 00:24:05;;;;;;;3.13;2.40;;;;;;;;;;5053476;28;20116;-57
2023/03/11 00:26:30;;;;;;;2.47;2.28;;;;;;;;;;5054008;28;20029;-55
2023/03/11 00:28:56;;;;;;;5.00;2.45;;;;;;;;;;5054178;28;20021;-55
2023/03/11 00:31:22;;;;;;;3.92;2.33;;;;;;;;;;5054151;28;20021;-57
2023/03/11 00:33:48;;;;;;;4.80;2.35;;;;;;;;;;5052906;28;20029;-55
2023/03/11 00:36:30;;;;;;;3.53;2.45;;;;;;;;;;5054082;28;20025;-56
2023/03/11 00:38:56;;;;;;;2.22;2.00;;;;;;;;;;5054704;28;20094;-55
2023/03/11 00:41:22;;;;;;;3.20;2.40;;;;;;;;;;5054218;28;20029;-57
2023/03/11 00:43:47;;;;;;;2.88;2.40;;;;;;;;;;5054243;28;20082;-56
2023/03/11 00:46:13;;;;;;;2.65;2.13;;;;;;;;;;5054296;28;20040;-56
2023/03/11 00:48:38;;;;;;;2.95;2.40;;;;;;;;;;5054237;28;20025;-55
2023/03/11 00:51:06;;;;;;;2.70;2.50;;;;;;;;;;5054407;28;20021;-56
2023/03/11 00:53:31;;;;;;;3.90;2.28;;;;;;;;;;5054172;28;20500;-56
2023/03/11 00:55:57;;;;;;;3.25;2.45;;;;;;;;;;5054361;28;20025;-56
2023/03/11 00:58:26;;;;;;;2.47;2.25;;;;;;;;;;5054055;28;20594;-59
2023/03/11 01:00:52;;;;;;;2.30;2.10;;;;;;;;;;5053855;28;20025;-56
2023/03/11 01:03:18;;;;;;;2.38;2.17;;;;;;;;;;5052621;28;20273;-53
2023/03/11 01:05:43;;;;;;;3.05;2.20;;;;;;;;;;5054136;28;20025;-56
2023/03/11 01:08:09;;;;;;;3.53;2.42;;;;;;;;;;5054177;28;20384;-56
2023/03/11 01:10:34;;;;;;;2.60;2.40;;;;;;;;;;5053867;28;20124;-55
2023/03/11 01:13:01;;;;;;;3.58;2.15;;;;;;;;;;5054076;28;20021;-57
2023/03/11 01:15:33;;;;;;;2.85;2.45;;;;;;;;;;5053924;28;20070;-56
2023/03/11 01:17:58;;;;;;;3.00;2.22;;;;;;;;;;5053706;28;20033;-56
2023/03/11 01:20:24;;;;;;;2.60;2.40;;;;;;;;;;5053630;28;20032;-53
2023/03/11 01:22:50;;;;;;;3.13;2.40;;;;;;;;;;5053915;28;20021;-58
2023/03/11 01:25:17;;;;;;;2.55;2.20;;;;;;;;;;5053574;28;20025;-56
2023/03/11 01:27:43;;;;;;;3.35;2.33;;;;;;;;;;5052440;28;20025;-57
2023/03/11 01:30:13;;;;;;;2.58;2.38;;;;;;;;;;5053452;28;20151;-56
2023/03/11 01:32:39;;;;;;;2.70;2.03;;;;;;;;;;5053448;28;20028;-56
2023/03/11 01:35:05;;;;;;;2.28;2.08;;;;;;;;;;5053318;28;20029;-56
2023/03/11 01:37:30;;;;;;;2.85;2.17;;;;;;;;;;5053236;28;20074;-55
2023/03/11 01:39:56;;;;;;;3.38;2.40;;;;;;;;;;5053510;28;20028;-56
2023/03/11 01:42:21;;;;;;;3.05;2.58;;;;;;;;;;5053535;28;20369;-53
2023/03/11 01:44:47;;;;;;;2.70;2.30;;;;;;;;;;5053183;28;20048;-59
2023/03/11 01:47:32;;;;;;;3.00;2.25;;;;;;;;;;5053114;28;20021;-56
2023/03/11 01:49:59;;;;;;;2.97;2.65;;;;;;;;;;5052833;28;20094;-56
2023/03/11 01:52:24;;;;;;;4.65;2.40;;;;;;;;;;5052993;28;20086;-58
2023/03/11 01:54:50;;;;;;;2.33;2.13;;;;;;;;;;5052989;28;20021;-56
2023/03/11 01:57:16;;;;;;;2.67;2.30;;;;;;;;;;5052989;28;20032;-57
2023/03/11 01:59:51;;;;;;;3.30;2.30;;;;;;;;;;5053112;28;20036;-51
2023/03/11 02:02:54;;;;;;;3.58;2.33;;;;;;;;;;5053214;28;20025;-56
2023/03/11 02:05:21;;;;;;;2.50;2.30;;;;;;;;;;5041161;28;20091;-57
2023/03/11 02:07:49;;;;;;;2.30;2.10;;;;;;;;;;5052912;28;20017;-55
2023/03/11 02:10:15;;;;;;;2.45;2.25;;;;;;;;;;5052708;28;20532;-56
2023/03/11 02:12:41;;;;;;;2.50;2.08;;;;;;;;;;5052561;28;20117;-52
2023/03/11 02:15:08;;;;;;;2.88;2.53;;;;;;;;;;5053212;28;20408;-55
2023/03/11 02:17:36;;;;;;;2.38;2.08;;;;;;;;;;5052878;28;20028;-56
2023/03/11 02:20:40;;;;;;;2.50;2.30;;;;;;;;;;5052431;28;20551;-55
2023/03/11 02:23:06;;;;;;;3.03;2.22;;;;;;;;;;5052767;28;20376;-54
2023/03/11 02:25:51;;;;;;;3.25;2.60;;;;;;;;;;5052449;28;20116;-56
2023/03/11 02:28:18;;;;;;;2.55;2.30;;;;;;;;;;5052514;28;20385;-54
2023/03/11 02:30:45;;;;;;;2.53;2.20;;;;;;;;;;5052732;28;20036;-55
2023/03/11 02:33:12;;;;;;;2.63;1.90;;;;;;;;;;5052331;28;20029;-53
2023/03/11 02:35:38;;;;;;;2.85;2.28;;;;;;;;;;5052348;28;20029;-55
2023/03/11 02:38:04;;;;;;;2.50;2.30;;;;;;;;;;5051824;28;20052;-55
2023/03/11 02:40:42;;;;;;;2.83;2.22;;;;;;;;;;5052214;28;20029;-55
2023/03/11 02:43:14;;;;;;;3.85;2.53;;;;;;;;;;5052639;28;20021;-53
2023/03/11 02:45:43;;;;;;;3.53;2.40;;;;;;;;;;5052289;28;20488;-53
2023/03/11 02:48:10;;;;;;;3.03;2.47;;;;;;;;;;5052503;28;20245;-54
2023/03/11 02:50:36;;;;;;;2.33;2.13;;;;;;;;;;5052565;28;20021;-57
2023/03/11 02:53:04;;;;;;;2.67;2.47;;;;;;;;;;5052242;28;20680;-54
2023/03/11 02:55:29;;;;;;;2.80;2.33;;;;;;;;;;5052221;28;20120;-59
2023/03/11 02:57:55;;;;;;;2.35;2.15;;;;;;;;;;5052157;28;20108;-51
2023/03/11 03:00:20;;;;;;;2.63;2.42;;;;;;;;;;5052401;28;20366;-55
2023/03/11 03:02:50;;;;;;;2.35;2.15;;;;;;;;;;5052124;28;20495;-53
2023/03/11 03:05:17;;;;;;;2.72;2.20;;;;;;;;;;5052190;28;20107;-54
2023/03/11 03:07:42;;;;;;;3.08;2.03;;;;;;;;;;5052126;28;20025;-55
2023/03/11 03:10:09;;;;;;;2.38;2.17;;;;;;;;;;5052063;28;20029;-52
2023/03/11 03:12:34;;;;;;;2.10;1.90;;;;;;;;;;5051938;28;20055;-53
2023/03/11 03:15:00;;;;;;;3.35;2.30;;;;;;;;;;5052040;28;20029;-56
2023/03/11 03:17:25;;;;;;;3.03;2.05;;;;;;;;;;5051992;28;20029;-53
2023/03/11 03:19:51;;;;;;;2.42;2.20;;;;;;;;;;5051959;28;20040;-53
2023/03/11 03:22:16;;;;;;;2.40;2.20;;;;;;;;;;5052005;28;20104;-52
2023/03/11 03:24:42;;;;;;;3.10;2.50;;;;;;;;;;5052181;28;20021;-54
2023/03/11 03:27:07;;;;;;;3.60;2.20;;;;;;;;;;5051880;28;20033;-55
2023/03/11 03:29:33;;;;;;;2.17;1.98;;;;;;;;;;5051892;28;20025;-56
2023/03/11 03:31:58;;;;;;;2.22;2.03;;;;;;;;;;5052147;28;20032;-57
2023/03/11 03:34:24;;;;;;;2.15;1.95;;;;;;;;;;5051841;28;20025;-55
2023/03/11 03:36:49;;;;;;;4.30;2.40;;;;;;;;;;5051513;28;20508;-58
2023/03/11 03:39:17;;;;;;;2.20;2.00;;;;;;;;;;5051747;28;20100;-55
2023/03/11 03:41:43;;;;;;;4.10;2.35;;;;;;;;;;5051631;28;20102;-56
2023/03/11 03:44:08;;;;;;;2.75;2.22;;;;;;;;;;5051685;28;20060;-56
2023/03/11 03:46:34;;;;;;;2.22;2.00;;;;;;;;;;5051688;28;20021;-56
2023/03/11 03:48:59;;;;;;;3.25;2.47;;;;;;;;;;5051998;28;20033;-59
2023/03/11 03:51:25;;;;;;;2.05;1.88;;;;;;;;;;5054883;28;20377;-58
2023/03/11 03:53:50;;;;;;;2.17;1.95;;;;;;;;;;5055368;28;20029;-55
2023/03/11 03:56:17;;;;;;;2.63;2.25;;;;;;;;;;5055261;28;20032;-57
2023/03/11 03:58:42;;;;;;;2.53;2.22;;;;;;;;;;5055209;28;20053;-55
2023/03/11 04:01:09;;;;;;;2.50;2.13;;;;;;;;;;5055077;28;20033;-54
2023/03/11 04:03:37;;;;;;;2.47;2.28;;;;;;;;;;5055123;28;20059;-53
2023/03/11 04:06:08;;;;;;;3.45;2.30;;;;;;;;;;5055033;28;20021;-55
2023/03/11 04:08:34;;;;;;;2.30;2.10;;;;;;;;;;5055021;28;20049;-53
2023/03/11 04:11:00;;;;;;;2.70;2.40;;;;;;;;;;5054987;28;20028;-56
2023/03/11 04:13:25;;;;;;;3.33;2.40;;;;;;;;;;5054921;28;20067;-58
2023/03/11 04:15:51;;;;;;;3.55;2.33;;;;;;;;;;5054863;28;20118;-55
2023/03/11 04:18:16;;;;;;;2.95;2.20;;;;;;;;;;5054842;28;20108;-54
2023/03/11 04:20:42;;;;;;;2.55;2.30;;;;;;;;;;5054679;28;20033;-56
2023/03/11 04:23:07;;;;;;;2.50;2.30;;;;;;;;;;5054783;28;20036;-56
2023/03/11 04:25:33;;;;;;;2.80;2.25;;;;;;;;;;5054608;28;20036;-59
2023/03/11 04:27:59;;;;;;;2.28;2.08;;;;;;;;;;5054706;28;20025;-56
2023/03/11 04:30:25;;;;;;;3.15;2.20;;;;;;;;;;5054632;28;20123;-54
2023/03/11 04:32:50;;;;;;;2.58;2.05;;;;;;;;;;5054593;28;20500;-55
2023/03/11 04:35:16;;;;;;;2.75;2.10;;;;;;;;;;5054837;28;20086;-56
2023/03/11 04:37:41;;;;;;;2.65;2.03;;;;;;;;;;5054331;28;20588;-55
2023/03/11 04:40:09;;;;;;;2.38;2.17;;;;;;;;;;5054387;28;20074;-56
2023/03/11 04:42:35;;;;;;;2.30;2.10;;;;;;;;;;5054423;28;20017;-54
2023/03/11 04:45:00;;;;;;;2.67;2.15;;;;;;;;;;5054333;28;20031;-54
2023/03/11 04:47:26;;;;;;;3.05;1.90;;;;;;;;;;5054317;28;20032;-53
2023/03/11 04:49:51;;;;;;;3.35;2.08;;;;;;;;;;5052051;28;20035;-56
2023/03/11 04:52:17;;;;;;;2.33;2.13;;;;;;;;;;5052986;28;20032;-56
2023/03/11 04:54:42;;;;;;;2.40;2.10;;;;;;;;;;5053095;28;20029;-60
2023/03/11 04:57:08;;;;;;;2.10;1.80;;;;;;;;;;5052793;28;20024;-60
2023/03/11 04:59:34;;;;;;;2.83;2.20;;;;;;;;;;5052653;28;20075;-52
2023/03/11 05:01:59;;;;;;;2.50;2.30;;;;;;;;;;5052559;28;20078;-60
2023/03/11 05:04:25;;;;;;;2.63;2.20;;;;;;;;;;5052542;28;20028;-51
2023/03/11 05:06:51;;;;;;;2.33;2.13;;;;;;;;;;5052739;28;20107;-53
2023/03/11 05:09:16;;;;;;;2.70;2.17;;;;;;;;;;5047723;28;20035;-55
2023/03/11 05:11:42;;;;;;;2.40;2.08;;;;;;;;;;5050882;28;20025;-53
2023/03/11 05:14:07;;;;;;;2.13;1.92;;;;;;;;;;5052288;28;20024;-62
2023/03/11 05:16:33;;;;;;;3.28;2.13;;;;;;;;;;5049200;28;20041;-58
2023/03/11 05:18:58;;;;;;;2.60;2.40;;;;;;;;;;5053062;28;20021;-55
2023/03/11 05:21:24;;;;;;;3.75;1.98;;;;;;;;;;5052175;28;20119;-55
2023/03/11 05:23:50;;;;;;;2.22;2.03;;;;;;;;;;5052190;28;20048;-54
2023/03/11 05:26:15;;;;;;;2.92;2.10;;;;;;;;;;5051530;28;20032;-55
2023/03/11 05:28:41;;;;;;;1.95;1.85;;;;;;;;;;5052388;28;20513;-54
2023/03/11 05:31:08;;;;;;;4.10;2.10;;;;;;;;;;5052975;28;20481;-55
2023/03/11 05:33:34;;;;;;;2.50;2.30;;;;;;;;;;5053293;28;20392;-59
2023/03/11 05:36:08;;;;;;;2.97;2.20;;;;;;;;;;5053574;28;20029;-59
2023/03/11 05:38:35;;;;;;;2.80;2.47;;;;;;;;;;5053236;28;20033;-55
2023/03/11 05:41:01;;;;;;;2.60;2.03;;;;;;;;;;5053390;28;20127;-54
2023/03/11 05:43:27;;;;;;;2.92;2.33;;;;;;;;;;5052187;28;20497;-51
2023/03/11 05:45:52;;;;;;;2.03;1.92;;;;;;;;;;5051996;28;20481;-55
2023/03/11 05:48:18;;;;;;;2.80;2.42;;;;;;;;;;5053074;28;20025;-55
2023/03/11 05:50:44;;;;;;;2.20;2.00;;;;;;;;;;5052937;28;20111;-53
2023/03/11 05:53:09;;;;;;;3.05;2.50;;;;;;;;;;5039027;28;20040;-55
2023/03/11 05:55:35;;;;;;;2.30;2.10;;;;;;;;;;5037768;28;20586;-55
2023/03/11 05:58:00;;;;;;;2.60;2.17;;;;;;;;;;5052338;28;20524;-54
2023/03/11 06:00:28;;;;;;;4.40;2.65;;;;;;;;;;5053035;28;20369;-54
2023/03/11 06:02:54;;;;;;;2.30;2.10;;;;;;;;;;5053046;28;20402;-60
2023/03/11 06:05:20;;;;;;;2.55;2.00;;;;;;;;;;5052779;28;20128;-56
2023/03/11 06:07:45;;;;;;;3.10;2.47;;;;;;;;;;5051662;28;20112;-56
2023/03/11 06:10:11;;;;;;;3.17;2.08;;;;;;;;;;5052596;28;20489;-54
2023/03/11 06:12:37;;;;;;;3.25;2.40;;;;;;;;;;5033500;28;20036;-56
2023/03/11 06:15:07;;;;;;;2.90;2.17;;;;;;;;;;5032769;28;20029;-53
2023/03/11 06:17:33;;;;;;;3.72;2.28;;;;;;;;;;5031472;28;20082;-50
2023/03/11 06:19:58;;;;;;;4.15;2.08;;;;;;;;;;5032561;28;20021;-60
2023/03/11 06:22:24;;;;;;;2.10;1.95;;;;;;;;;;5032609;28;20111;-53
2023/03/11 06:24:49;;;;;;;9.10;2.50;;;;;;;;;;5044685;28;20029;-55
2023/03/11 06:27:15;;;;;;;4.88;2.20;;;;;;;;;;5052526;28;20528;-62
2023/03/11 06:29:40;;;;;;;3.67;2.38;;;;;;;;;;5052312;28;20036;-64
2023/03/11 06:32:06;;;;;;;3.38;2.20;;;;;;;;;;5052626;28;20029;-51
2023/03/11 06:34:32;;;;;;;8.38;2.45;;;;;;;;;;5052346;28;20408;-49
2023/03/11 06:36:59;;;;;;;4.82;2.30;;;;;;;;;;5052127;28;20044;-56
2023/03/11 06:39:24;;;;;;;4.70;2.00;;;;;;;;;;5052610;28;20075;-59
2023/03/11 06:41:50;;;;;;;2.42;1.92;;;;;;;;;;5052492;28;20419;-56
2023/03/11 06:44:15;;;;;;;3.05;2.33;;;;;;;;;;5052463;28;20443;-56
2023/03/11 06:46:41;;;;;;;4.47;2.40;;;;;;;;;;5067731;28;20388;-54
2023/03/11 06:49:07;;;;;;;5.13;1.98;;;;;;;;;;5052268;28;20020;-54
2023/03/11 06:51:33;;;;;;;2.70;2.00;;;;;;;;;;5052189;28;20025;-55
2023/03/11 06:53:58;;;;;;;5.22;1.83;;;;;;;;;;5052161;28;20116;-57
2023/03/11 06:56:24;;;;;;;3.65;2.40;;;;;;;;;;5034266;28;20095;-56
2023/03/11 06:58:50;;;;;;;3.28;2.22;;;;;;;;;;5052147;28;20040;-55
2023/03/11 07:01:22;;;;;;;4.93;2.28;;;;;;;;;;5052062;28;20045;-52
2023/03/11 07:03:48;;;;;;;3.80;2.60;;;;;;;;;;5052115;28;20404;-59
2023/03/11 07:06:20;;;;;;;3.42;2.20;;;;;;;;;;5052087;28;20058;-55
2023/03/11 07:08:47;;;;;;;3.65;2.35;;;;;;;;;;5052008;28;20036;-56
2023/03/11 07:11:16;;;;;;;3.72;2.50;;;;;;;;;;5050789;28;20024;-51
2023/03/11 07:13:42;;;;;;;4.80;2.40;;;;;;;;;;5052247;28;20021;-55
2023/03/11 07:16:17;;;;;;;2.97;2.35;;;;;;;;;;5051993;28;20598;-54
2023/03/11 07:18:45;;;;;;;3.30;2.20;;;;;;;;;;5036846;28;20036;-51
2023/03/11 07:21:14;;;;;;;2.47;2.20;;;;;;;;;;5031966;28;20040;-54
2023/03/11 07:23:39;;;;;;;6.15;2.33;;;;;;;;;;5042591;28;20127;-56
2023/03/11 07:26:12;;;;;;;4.47;2.33;;;;;;;;;;5053371;28;20113;-55
2023/03/11 07:28:39;;;;;;;5.90;2.58;;;;;;;;;;5054038;28;20040;-56
2023/03/11 07:31:12;;;;;;;2.55;2.10;;;;;;;;;;5054263;28;20104;-55
2023/03/11 07:33:37;;;;;;;2.88;2.10;;;;;;;;;;5053005;28;20068;-54
2023/03/11 07:36:12;;;;;;;3.28;2.30;;;;;;;;;;5053729;28;20064;-55
2023/03/11 07:38:38;;;;;;;2.97;2.30;;;;;;;;;;5068044;28;20408;-56
2023/03/11 07:41:05;;;;;;;2.45;2.20;;;;;;;;;;5054324;28;20029;-55
2023/03/11 07:43:32;;;;;;;3.65;1.95;;;;;;;;;;5053790;28;20079;-58
2023/03/11 07:46:17;;;;;;;2.75;2.22;;;;;;;;;;5053967;28;20027;-52
2023/03/11 07:48:44;;;;;;;8.65;2.45;;;;;;;;;;5051598;28;20120;-58
2023/03/11 07:51:14;;;;;;;6.78;2.22;;;;;;;;;;5051042;28;20021;-53
2023/03/11 07:53:39;;;;;;;3.50;2.20;;;;;;;;;;5055270;28;20021;-54
2023/03/11 07:56:06;;;;;;;2.95;2.17;;;;;;;;;;5053810;28;20020;-56
2023/03/11 07:58:33;;;;;;;3.45;1.95;;;;;;;;;;5053612;28;20029;-54
2023/03/11 08:01:16;;;;;;;11.88;2.40;;;;;;;;;;5055122;28;20032;-55
2023/03/11 08:03:44;;;;;;;2.58;1.98;;;;;;;;;;5053222;28;20122;-57
2023/03/11 08:06:18;;;;;;;4.00;2.42;;;;;;;;;;5053684;28;20020;-57
2023/03/11 08:08:44;;;;;;;4.10;2.35;;;;;;;;;;5052702;28;20028;-55
2023/03/11 08:11:12;;;;;;;1.80;1.70;;;;;;;;;;5053650;28;20071;-54
2023/03/11 08:13:38;;;;;;;4.65;2.40;;;;;;;;;;5053930;28;20029;-55
2023/03/11 08:16:05;;;;;;;4.30;2.40;;;;;;;;;;5054949;28;20025;-57
2023/03/11 08:18:32;;;;;;;6.05;2.38;;;;;;;;;;5054810;28;20027;-55
2023/03/11 08:20:59;;;;;;;3.65;2.38;;;;;;;;;;5055054;28;20111;-57
2023/03/11 08:23:24;;;;;;;3.92;2.40;;;;;;;;;;5054742;28;20025;-53
2023/03/11 08:25:50;;;;;;;4.05;2.33;;;;;;;;;;5053864;28;20037;-57
2023/03/11 08:28:15;;;;;;;2.88;2.17;;;;;;;;;;5042291;28;20493;-56
2023/03/11 08:30:41;;;;;;;4.82;1.90;;;;;;;;;;5034653;28;20486;-56
2023/03/11 08:33:07;;;;;;;4.47;2.20;;;;;;;;;;5043700;28;20025;-56
2023/03/11 08:35:33;;;;;;;3.20;2.30;;;;;;;;;;5052679;28;20029;-58
2023/03/11 08:37:58;;;;;;;3.58;2.33;;;;;;;;;;5053025;28;20033;-55
2023/03/11 08:40:24;;;;;;;5.43;2.17;;;;;;;;;;5051058;28;20033;-55
2023/03/11 08:42:49;;;;;;;3.25;2.08;;;;;;;;;;5052815;28;20029;-57
2023/03/11 08:45:15;;;;;;;2.53;2.13;;;;;;;;;;5052356;28;20025;-59
2023/03/11 08:47:41;;;;;;;2.67;2.20;;;;;;;;;;5053289;28;20032;-53
2023/03/11 08:50:12;;;;;;;2.60;2.20;;;;;;;;;;5052697;28;20044;-54
2023/03/11 08:52:37;;;;;;;2.92;2.20;;;;;;;;;;5052593;28;20037;-53
2023/03/11 08:55:04;;;;;;;4.60;2.30;;;;;;;;;;5054157;28;20436;-60
2023/03/11 08:57:31;;;;;;;3.65;2.45;;;;;;;;;;5050632;28;20045;-59
2023/03/11 08:59:59;;;;;;;3.50;2.33;;;;;;;;;;5052822;28;20028;-56
2023/03/11 09:02:25;;;;;;;5.22;2.72;;;;;;;;;;5052784;28;20104;-55
2023/03/11 09:04:51;;;;;;;2.78;2.20;;;;;;;;;;5051999;28;20021;-56
2023/03/11 09:07:17;;;;;;;2.65;2.10;;;;;;;;;;5053394;28;20107;-58
2023/03/11 09:09:42;;;;;;;2.83;2.25;;;;;;;;;;5053949;28;20143;-56
2023/03/11 09:12:08;;;;;;;3.15;2.47;;;;;;;;;;5054201;28;20032;-54
2023/03/11 09:14:36;;;;;;;3.78;2.35;;;;;;;;;;5053844;28;20075;-54
2023/03/11 09:17:02;;;;;;;2.72;2.22;;;;;;;;;;5053985;28;20044;-56
2023/03/11 09:19:28;;;;;;;2.35;2.10;;;;;;;;;;5053616;28;20430;-60
2023/03/11 09:21:53;;;;;;;4.82;2.40;;;;;;;;;;5053625;28;20033;-58
2023/03/11 09:24:19;;;;;;;5.10;2.35;;;;;;;;;;5053567;28;20493;-54
2023/03/11 09:26:44;;;;;;;3.78;2.38;;;;;;;;;;5053582;28;20223;-56
2023/03/11 09:29:10;;;;;;;4.00;2.50;;;;;;;;;;5053538;28;20017;-56
2023/03/11 09:31:37;;;;;;;2.80;2.30;;;;;;;;;;5053432;28;20541;-56
2023/03/11 09:34:02;;;;;;;2.40;2.20;;;;;;;;;;5053751;28;20037;-56
2023/03/11 09:36:28;;;;;;;3.33;2.20;;;;;;;;;;5053139;28;20102;-56
2023/03/11 09:38:54;;;;;;;2.78;2.10;;;;;;;;;;5053331;28;20033;-56
2023/03/11 09:41:22;;;;;;;3.13;2.08;;;;;;;;;;5053273;28;20036;-61
2023/03/11 09:44:06;;;;;;;3.00;2.13;;;;;;;;;;5053189;28;20477;-55
2023/03/11 09:46:42;;;;;;;4.20;2.42;;;;;;;;;;5053043;28;20485;-54
2023/03/11 09:49:32;;;;;;;5.95;2.38;;;;;;;;;;5052546;28;20021;-61
2023/03/11 09:52:14;;;;;;;;;;;;;;;;;;5044248;28;20386;-59
2023/03/11 09:54:49;;;;;;;3.45;2.20;;;;;;;;;;5045147;28;19920;-58
2023/03/11 09:57:25;;;;;;;2.88;2.20;;;;;;;;;;5053010;28;20036;-54
2023/03/11 09:59:51;;;;;;;5.95;2.50;;;;;;;;;;5052959;28;20044;-61
2023/03/11 10:02:19;;;;;;;3.17;2.40;;;;;;;;;;5051111;28;20559;-62
2023/03/11 10:05:10;;;;;;;2.42;1.92;;;;;;;;;;5052150;28;20029;-55
2023/03/11 10:07:44;;;;;;;;;;;;;;;;;;5051475;28;20033;-56
2023/03/11 10:10:12;;;;;;;4.38;2.42;;;;;;;;;;5050031;28;19916;-58
2023/03/11 10:12:56;;;;;;;4.45;2.10;;;;;;;;;;5051783;28;20025;-56
2023/03/11 10:15:28;;;;;;;2.65;2.08;;;;;;;;;;5049409;28;20033;-57
2023/03/11 10:18:02;;;;;;;4.00;2.28;;;;;;;;;;5051930;28;20029;-57
2023/03/11 10:20:31;;;;;;;2.50;2.30;;;;;;;;;;5051954;28;20032;-57
2023/03/11 10:23:26;;;;;;;3.15;2.42;;;;;;;;;;5052869;28;20074;-53
2023/03/11 10:26:12;;;;;;;3.33;2.50;;;;;;;;;;5052513;28;20021;-56
2023/03/11 10:29:00;;;;;;;2.45;2.22;;;;;;;;;;5049106;28;20407;-61
2023/03/11 10:31:31;;;;;;;3.17;2.45;;;;;;;;;;5050658;28;20362;-60
2023/03/11 10:34:14;;;;;;;2.30;2.00;;;;;;;;;;5051404;28;20021;-54
2023/03/11 10:36:55;;;;;;;5.32;2.20;;;;;;;;;;5050043;28;20079;-58
2023/03/11 10:39:22;;;;;;;2.92;2.40;;;;;;;;;;5050081;28;20033;-57
2023/03/11 10:41:56;;;;;;;2.63;2.42;;;;;;;;;;5051099;28;20481;-57
2023/03/11 10:44:33;;;;;;;2.85;2.05;;;;;;;;;;5050916;28;20059;-56
2023/03/11 10:47:00;;;;;;;2.78;2.17;;;;;;;;;;5050848;28;20061;-59
2023/03/11 10:49:26;;;;;;;2.75;2.28;;;;;;;;;;5052277;28;20051;-57
2023/03/11 10:51:54;;;;;;;4.43;2.30;;;;;;;;;;5051033;28;20063;-62
2023/03/11 10:54:45;;;;;;;2.38;2.00;;;;;;;;;;5048210;28;20481;-56
2023/03/11 10:57:24;;;;;;;3.67;2.45;;;;;;;;;;5032660;28;20041;-59
2023/03/11 11:00:15;;;;;;;2.63;2.20;;;;;;;;;;5034964;28;20036;-60
2023/03/11 11:02:50;;;;;;;2.90;2.08;;;;;;;;;;5036636;28;20115;-59
2023/03/11 11:05:21;;;;;;;2.92;2.22;;;;;;;;;;5056100;28;20025;-59
2023/03/11 11:07:49;;;;;;;3.58;2.10;;;;;;;;;;5042407;28;20036;-59
2023/03/11 11:10:19;;;;;;;3.85;2.00;;;;;;;;;;5056143;28;20108;-59
2023/03/11 11:12:50;;;;;;;2.30;2.10;;;;;;;;;;5056464;28;20036;-58
2023/03/11 11:16:01;;;;;;;2.83;2.50;;;;;;;;;;5056113;28;20114;-59
2023/03/11 11:18:34;;;;;;;3.53;2.13;;;;;;;;;;5033674;28;20030;-58
2023/03/11 11:21:05;;;;;;;3.88;2.17;;;;;;;;;;5033518;28;20493;-59
2023/03/11 11:23:48;;;;;;;3.47;2.20;;;;;;;;;;5045231;28;20055;-59
2023/03/11 11:26:25;;;;;;;2.22;2.00;;;;;;;;;;5055753;28;20025;-60
2023/03/11 11:29:14;;;;;;;2.20;2.00;;;;;;;;;;5055725;28;20043;-58
2023/03/11 11:31:44;;;;;;;2.92;2.60;;;;;;;;;;5055456;28;20194;-60
2023/03/11 11:34:29;;;;;;;2.22;1.90;;;;;;;;;;5055998;28;20029;-55
2023/03/11 11:36:58;;;;;;;3.22;1.83;;;;;;;;;;5055463;28;20041;-56
2023/03/11 11:39:27;;;;;;;3.72;2.20;;;;;;;;;;5055521;28;20036;-62
2023/03/11 11:41:55;;;;;;;2.80;2.15;;;;;;;;;;5055927;28;20099;-59
2023/03/11 11:44:28;;;;;;;2.42;2.22;;;;;;;;;;5055508;28;20060;-59
2023/03/11 11:47:02;;;;;;;4.55;2.42;;;;;;;;;;5055456;28;20039;-59
2023/03/11 11:49:32;;;;;;;3.10;1.98;;;;;;;;;;5055482;28;20017;-59
2023/03/11 11:52:14;;;;;;;2.80;1.80;;;;;;;;;;5055592;28;20376;-57
2023/03/11 11:54:51;;;;;;;2.78;2.17;;;;;;;;;;5055619;28;20032;-60
2023/03/11 11:57:20;;;;;;;3.95;1.92;;;;;;;;;;5055365;28;20021;-59
2023/03/11 11:59:46;;;;;;;5.35;2.10;;;;;;;;;;5054591;28;20033;-57
2023/03/11 12:02:54;;;;;;;3.50;2.00;;;;;;;;;;5054544;28;20107;-57
2023/03/11 12:05:36;;;;;;;2.65;2.00;;;;;;;;;;5053807;28;20111;-54
2023/03/11 12:08:14;;;;;;;4.05;2.33;;;;;;;;;;5055347;28;20021;-56
2023/03/11 12:10:56;;;;;;;6.60;2.10;;;;;;;;;;5054204;28;20068;-56
2023/03/11 12:13:28;;;;;;;7.03;2.10;;;;;;;;;;5055145;28;20372;-64
2023/03/11 12:16:03;;;;;;;4.00;2.03;;;;;;;;;;5054965;28;20142;-56
2023/03/11 12:18:43;;;;;;;6.60;2.58;;;;;;;;;;5054974;28;20029;-57
2023/03/11 12:21:22;;;;;;;3.80;2.00;;;;;;;;;;5054875;28;20082;-55
2023/03/11 12:24:15;;;;;;;3.88;1.95;;;;;;;;;;5054207;28;20560;-58
2023/03/11 12:26:43;;;;;;;6.20;2.17;;;;;;;;;;5053334;28;20025;-60
2023/03/11 12:29:27;;;;;;;6.53;2.08;;;;;;;;;;5054671;28;20531;-55
2023/03/11 12:31:55;;;;;;;5.78;2.40;;;;;;;;;;5053473;28;20032;-61
2023/03/11 12:34:23;;;;;;;3.30;2.17;;;;;;;;;;5054586;28;20021;-59
2023/03/11 12:36:51;;;;;;;3.42;2.17;;;;;;;;;;5054602;28;20132;-61
2023/03/11 12:39:27;;;;;;;4.88;2.50;;;;;;;;;;5054495;28;20025;-57
2023/03/11 12:42:21;;;;;;;8.68;2.08;;;;;;;;;;5054424;28;20063;-59
2023/03/11 12:44:48;;;;;;;8.13;2.50;;;;;;;;;;5054286;28;20111;-54
2023/03/11 12:47:26;;;;;;;2.08;1.88;;;;;;;;;;5054203;28;20472;-55
2023/03/11 12:50:16;;;;;;;6.95;2.22;;;;;;;;;;5053013;28;20426;-64
2023/03/11 12:52:53;;;;;;;4.43;1.90;;;;;;;;;;5054004;28;20173;-64
2023/03/11 12:55:29;;;;;;;3.10;2.00;;;;;;;;;;5054223;28;20029;-55
2023/03/11 12:58:04;;;;;;;2.83;2.00;;;;;;;;;;5054123;28;20037;-56
2023/03/11 13:00:57;;;;;;;7.03;2.00;;;;;;;;;;5054376;28;20036;-56
2023/03/11 13:03:31;;;;;;;3.45;2.10;;;;;;;;;;5054080;28;20469;-54
2023/03/11 13:06:09;;;;;;;5.05;2.10;;;;;;;;;;5054063;28;20040;-59
2023/03/11 13:08:53;;;;;;;3.55;2.65;;;;;;;;;;5053956;28;20033;-59
2023/03/11 13:11:46;;;;;;;3.97;2.25;;;;;;;;;;5054121;28;20029;-59
2023/03/11 13:14:26;;;;;;;6.15;2.55;;;;;;;;;;5052552;28;20044;-59
2023/03/11 13:16:51;;;;;;;8.82;3.92;;;;;;;;;;5054108;28;20052;-57
2023/03/11 13:19:26;;;;;;;5.45;2.00;;;;;;;;;;5053712;28;20021;-58
2023/03/11 13:21:58;;;;;;;7.65;2.38;;;;;;;;;;5053732;28;20032;-57
2023/03/11 13:24:28;;;;;;;4.50;2.08;;;;;;;;;;5053715;28;20028;-57
2023/03/11 13:27:00;;;;;;;3.33;1.80;;;;;;;;;;5053247;28;20033;-58
2023/03/11 13:29:45;;;;;;;7.25;2.08;;;;;;;;;;5053556;28;20045;-59
2023/03/11 13:32:49;;;;;;;4.10;1.80;;;;;;;;;;5053361;28;20040;-59
2023/03/11 13:35:39;;;;;;;3.28;1.80;;;;;;;;;;5051788;28;20079;-54
2023/03/11 13:38:29;;;;;;;9.43;2.45;;;;;;;;;;5052331;28;20499;-57
2023/03/11 13:40:55;;;;;;;5.95;2.00;;;;;;;;;;5052600;28;20031;-59
2023/03/11 13:43:25;;;;;;;4.25;1.77;;;;;;;;;;5051646;28;20032;-56
2023/03/11 13:46:05;;;;;;;5.80;1.92;;;;;;;;;;5053165;28;20052;-57
2023/03/11 13:48:38;;;;;;;6.32;1.95;;;;;;;;;;5050408;28;20033;-55
2023/03/11 13:51:14;;;;;;;10.45;2.47;;;;;;;;;;5052951;28;20044;-56
2023/03/11 13:53:49;;;;;;;2.88;1.88;;;;;;;;;;5051194;28;20044;-57
2023/03/11 13:56:25;;;;;;;3.08;2.20;;;;;;;;;;5051221;28;20025;-55
2023/03/11 13:58:51;;;;;;;6.15;2.00;;;;;;;;;;5051376;28;20029;-57
2023/03/11 14:01:17;;;;;;;4.22;2.00;;;;;;;;;;5052931;28;20086;-59
2023/03/11 14:03:47;;;;;;;7.30;2.22;;;;;;;;;;5052375;28;20031;-57
2023/03/11 14:06:18;;;;;;;4.60;2.00;;;;;;;;;;5053035;28;20025;-56
2023/03/11 14:08:53;;;;;;;12.13;2.20;;;;;;;;;;5053142;28;20284;-57
2023/03/11 14:11:19;;;;;;;11.50;2.30;;;;;;;;;;5052841;28;20036;-57
2023/03/11 14:13:46;;;;;;;38.55;4.50;;;;;;;;;;5052225;28;20032;-57
2023/03/11 14:16:42;;;;;;;39.35;3.35;;;;;;;;;;5053006;28;20060;-57
2023/03/11 14:19:18;;;;;;;12.55;2.20;;;;;;;;;;5052985;28;20079;-56
2023/03/11 14:21:45;;;;;;;8.30;2.30;;;;;;;;;;5052637;28;20067;-56
2023/03/11 14:24:22;;;;;;;6.78;2.70;;;;;;;;;;5052610;28;20029;-53
2023/03/11 14:26:52;;;;;;;2.42;2.20;;;;;;;;;;5052555;28;20135;-54
2023/03/11 14:29:20;;;;;;;3.35;2.15;;;;;;;;;;5052435;28;20029;-56
2023/03/11 14:31:46;;;;;;;5.03;2.47;;;;;;;;;;5052548;28;20035;-54
2023/03/11 14:34:14;;;;;;;5.10;2.17;;;;;;;;;;5051957;28;20025;-53
2023/03/11 14:36:55;;;;;;;7.07;1.80;;;;;;;;;;5052202;28;20443;-56
2023/03/11 14:39:28;;;;;;;6.03;2.35;;;;;;;;;;5052388;28;20032;-56
2023/03/11 14:42:05;;;;;;;6.05;2.22;;;;;;;;;;5052396;28;20504;-54
2023/03/11 14:44:36;;;;;;;2.88;1.95;;;;;;;;;;5052611;28;20028;-52
2023/03/11 14:47:27;;;;;;;5.25;2.10;;;;;;;;;;5052510;28;20021;-50
2023/03/11 14:49:53;;;;;;;4.40;1.92;;;;;;;;;;5052509;28;20033;-54
2023/03/11 14:52:45;;;;;;;7.20;2.25;;;;;;;;;;5052433;28;20024;-60
2023/03/11 14:55:16;;;;;;;5.45;2.15;;;;;;;;;;5052200;28;20067;-56
2023/03/11 14:58:12;;;;;;;6.20;2.05;;;;;;;;;;5052164;28;20060;-56
2023/03/11 15:00:59;;;;;;;5.63;2.05;;;;;;;;;;5052075;28;20063;-60
2023/03/11 15:03:36;;;;;;;4.65;2.38;;;;;;;;;;5051835;28;20461;-55